createdAt,value
2018-08-19T00:00:01.580Z,21.95
2018-08-19T00:00:27.739Z,21.92
2018-08-19T00:00:53.875Z,21.98
2018-08-19T00:01:20.016Z,21.92
2018-08-19T00:01:46.144Z,21.93
2018-08-19T00:02:12.275Z,21.93
2018-08-19T00:02:38.441Z,21.98
2018-08-19T00:03:04.577Z,21.95
2018-08-19T00:03:30.715Z,21.89
2018-08-19T00:03:56.852Z,21.89
2018-08-19T00:04:22.986Z,21.92
2018-08-19T00:04:49.126Z,21.96
2018-08-19T00:05:15.262Z,21.82
2018-08-19T00:05:41.430Z,21.92
2018-08-19T00:06:07.546Z,21.92
2018-08-19T00:06:33.670Z,21.95
2018-08-19T00:06:59.836Z,21.79
2018-08-19T00:07:25.965Z,21.79
2018-08-19T00:07:52.101Z,21.8
2018-08-19T00:08:18.239Z,21.77
2018-08-19T00:08:44.364Z,21.77
2018-08-19T00:09:10.504Z,21.79
2018-08-19T00:09:36.638Z,21.69
2018-08-19T00:10:02.783Z,21.7
2018-08-19T00:10:28.919Z,21.69
2018-08-19T00:10:55.075Z,21.76
2018-08-19T00:11:21.212Z,21.7
2018-08-19T00:11:47.345Z,21.75
2018-08-19T00:12:13.510Z,21.61
2018-08-19T00:12:39.650Z,21.7
2018-08-19T00:13:05.787Z,21.61
2018-08-19T00:13:31.915Z,21.77
2018-08-19T00:13:58.055Z,21.62
2018-08-19T00:14:24.188Z,21.61
2018-08-19T00:14:50.339Z,21.62
2018-08-19T00:15:16.480Z,21.61
2018-08-19T00:15:42.606Z,21.62
2018-08-19T00:16:08.749Z,21.66
2018-08-19T00:16:34.881Z,21.69
2018-08-19T00:17:01.044Z,21.67
2018-08-19T00:17:27.181Z,21.72
2018-08-19T00:17:53.319Z,21.69
2018-08-19T00:18:19.451Z,21.75
2018-08-19T00:18:45.597Z,21.69
2018-08-19T00:19:11.727Z,21.75
2018-08-19T00:19:37.862Z,21.73
2018-08-19T00:20:04.004Z,21.67
2018-08-19T00:20:30.142Z,21.69
2018-08-19T00:20:56.272Z,21.67
2018-08-19T00:21:22.429Z,21.67
2018-08-19T00:21:48.585Z,21.58
2018-08-19T00:22:14.702Z,21.62
2018-08-19T00:22:40.840Z,21.6
2018-08-19T00:23:06.999Z,21.6
2018-08-19T00:23:33.132Z,21.7
2018-08-19T00:23:59.271Z,21.6
2018-08-19T00:24:25.410Z,21.7
2018-08-19T00:24:51.542Z,21.7
2018-08-19T00:25:17.679Z,21.57
2018-08-19T00:25:43.815Z,21.6
2018-08-19T00:26:09.949Z,21.66
2018-08-19T00:26:36.089Z,21.6
2018-08-19T00:27:02.226Z,21.58
2018-08-19T00:27:28.357Z,21.62
2018-08-19T00:27:54.504Z,21.55
2018-08-19T00:28:20.631Z,21.58
2018-08-19T00:28:46.793Z,21.6
2018-08-19T00:29:12.898Z,21.61
2018-08-19T00:29:39.035Z,21.58
2018-08-19T00:30:05.169Z,21.58
2018-08-19T00:30:31.331Z,21.57
2018-08-19T00:30:57.464Z,21.62
2018-08-19T00:31:23.602Z,21.6
2018-08-19T00:31:49.743Z,21.6
2018-08-19T00:32:15.897Z,21.54
2018-08-19T00:32:42.049Z,21.55
2018-08-19T00:33:08.261Z,21.6
2018-08-19T00:33:34.375Z,21.54
2018-08-19T00:34:00.511Z,21.57
2018-08-19T00:34:26.648Z,21.6
2018-08-19T00:34:52.788Z,21.5
2018-08-19T00:35:18.923Z,21.58
2018-08-19T00:35:45.057Z,21.55
2018-08-19T00:36:11.205Z,21.51
2018-08-19T00:36:37.338Z,21.46
2018-08-19T00:37:03.475Z,21.48
2018-08-19T00:37:29.612Z,21.45
2018-08-19T00:37:55.746Z,21.4
2018-08-19T00:38:21.880Z,21.27
2018-08-19T00:38:48.011Z,21.27
2018-08-19T00:39:14.175Z,21.29
2018-08-19T00:39:40.305Z,21.27
2018-08-19T00:40:06.440Z,21.33
2018-08-19T00:40:32.573Z,21.25
2018-08-19T00:40:58.714Z,21.2
2018-08-19T00:41:24.878Z,21.12
2018-08-19T00:41:51.006Z,21.18
2018-08-19T00:42:17.164Z,21.14
2018-08-19T00:42:43.304Z,21.09
2018-08-19T00:43:09.458Z,21.12
2018-08-19T00:43:35.594Z,21.18
2018-08-19T00:44:01.740Z,21.07
2018-08-19T00:44:27.873Z,21.14
2018-08-19T00:44:54.003Z,21.15
2018-08-19T00:45:20.143Z,21.12
2018-08-19T00:45:46.279Z,21.09
2018-08-19T00:46:12.408Z,21.11
2018-08-19T00:46:38.549Z,21.12
2018-08-19T00:47:04.685Z,21.15
2018-08-19T00:47:30.824Z,21.17
2018-08-19T00:47:56.977Z,21.14
2018-08-19T00:48:23.117Z,21.07
2018-08-19T00:48:49.255Z,21.11
2018-08-19T00:49:15.384Z,21.07
2018-08-19T00:49:41.522Z,21.21
2018-08-19T00:50:07.685Z,21.18
2018-08-19T00:50:33.881Z,21.22
2018-08-19T00:50:59.983Z,21.21
2018-08-19T00:51:26.144Z,21.2
2018-08-19T00:51:52.273Z,21.2
2018-08-19T00:52:18.438Z,21.2
2018-08-19T00:52:44.569Z,21.18
2018-08-19T00:53:10.731Z,21.21
2018-08-19T00:53:36.863Z,21.18
2018-08-19T00:54:03.001Z,21.21
2018-08-19T00:54:29.145Z,21.22
2018-08-19T00:54:55.275Z,21.18
2018-08-19T00:55:21.409Z,21.27
2018-08-19T00:55:47.550Z,21.27
2018-08-19T00:56:13.710Z,21.25
2018-08-19T00:56:39.847Z,21.17
2018-08-19T00:57:05.990Z,21.24
2018-08-19T00:57:32.134Z,21.21
2018-08-19T00:57:58.272Z,21.12
2018-08-19T00:58:24.403Z,21.14
2018-08-19T00:58:50.587Z,21.06
2018-08-19T00:59:16.722Z,21.11
2018-08-19T00:59:42.861Z,21.03
2018-08-19T01:00:09.000Z,21.02
2018-08-19T01:00:35.135Z,21.09
2018-08-19T01:01:01.273Z,21.15
2018-08-19T01:01:27.439Z,21.17
2018-08-19T01:01:53.602Z,21.03
2018-08-19T01:02:19.759Z,21.12
2018-08-19T01:02:45.891Z,21.14
2018-08-19T01:03:12.057Z,21.06
2018-08-19T01:03:38.193Z,21.09
2018-08-19T01:04:04.359Z,21.05
2018-08-19T01:04:30.496Z,21.06
2018-08-19T01:04:56.629Z,21.03
2018-08-19T01:05:22.760Z,21.03
2018-08-19T01:05:48.892Z,21
2018-08-19T01:06:15.035Z,20.95
2018-08-19T01:06:41.174Z,20.93
2018-08-19T01:07:07.330Z,20.95
2018-08-19T01:07:33.470Z,20.88
2018-08-19T01:07:59.605Z,20.9
2018-08-19T01:08:25.739Z,20.88
2018-08-19T01:08:51.877Z,20.9
2018-08-19T01:09:18.013Z,20.84
2018-08-19T01:09:44.152Z,20.87
2018-08-19T01:10:10.280Z,20.95
2018-08-19T01:10:36.448Z,20.93
2018-08-19T01:11:02.583Z,20.92
2018-08-19T01:11:28.718Z,20.88
2018-08-19T01:11:54.859Z,20.95
2018-08-19T01:12:20.989Z,20.88
2018-08-19T01:12:47.123Z,20.87
2018-08-19T01:13:13.258Z,20.87
2018-08-19T01:13:39.416Z,20.85
2018-08-19T01:14:05.549Z,20.8
2018-08-19T01:14:31.682Z,20.84
2018-08-19T01:14:57.821Z,20.82
2018-08-19T01:15:23.958Z,20.81
2018-08-19T01:15:50.119Z,20.81
2018-08-19T01:16:16.275Z,20.82
2018-08-19T01:16:42.411Z,20.87
2018-08-19T01:17:08.550Z,20.88
2018-08-19T01:17:34.684Z,20.88
2018-08-19T01:18:00.825Z,20.9
2018-08-19T01:18:26.956Z,20.88
2018-08-19T01:18:53.100Z,20.9
2018-08-19T01:19:19.226Z,20.93
2018-08-19T01:19:45.365Z,20.95
2018-08-19T01:20:11.524Z,20.9
2018-08-19T01:20:37.646Z,20.87
2018-08-19T01:21:03.788Z,20.95
2018-08-19T01:21:29.924Z,20.99
2018-08-19T01:21:56.064Z,20.95
2018-08-19T01:22:22.201Z,20.97
2018-08-19T01:22:48.379Z,21.02
2018-08-19T01:23:14.469Z,20.99
2018-08-19T01:23:40.636Z,20.96
2018-08-19T01:24:06.771Z,21.02
2018-08-19T01:24:32.910Z,21.03
2018-08-19T01:24:59.035Z,21.07
2018-08-19T01:25:25.172Z,20.99
2018-08-19T01:25:51.335Z,21.07
2018-08-19T01:26:17.468Z,21.09
2018-08-19T01:26:43.600Z,21.05
2018-08-19T01:27:09.754Z,20.99
2018-08-19T01:27:35.923Z,21.07
2018-08-19T01:28:02.052Z,20.92
2018-08-19T01:28:28.188Z,21.06
2018-08-19T01:28:54.322Z,21.07
2018-08-19T01:29:20.458Z,21
2018-08-19T01:29:46.597Z,21
2018-08-19T01:30:12.733Z,21.03
2018-08-19T01:30:38.896Z,20.96
2018-08-19T01:31:05.052Z,20.92
2018-08-19T01:31:31.188Z,20.93
2018-08-19T01:31:57.318Z,20.92
2018-08-19T01:32:23.458Z,20.95
2018-08-19T01:32:49.600Z,21.05
2018-08-19T01:33:15.752Z,21.07
2018-08-19T01:33:41.916Z,21.02
2018-08-19T01:34:08.055Z,21.09
2018-08-19T01:34:34.195Z,21.06
2018-08-19T01:35:00.322Z,21.05
2018-08-19T01:35:26.456Z,21.09
2018-08-19T01:35:52.593Z,21.03
2018-08-19T01:36:18.756Z,21.05
2018-08-19T01:36:44.889Z,21.07
2018-08-19T01:37:11.049Z,21.11
2018-08-19T01:37:37.188Z,21.06
2018-08-19T01:38:03.322Z,21.11
2018-08-19T01:38:29.471Z,21.07
2018-08-19T01:38:55.622Z,21.11
2018-08-19T01:39:21.756Z,21.18
2018-08-19T01:39:47.891Z,21.11
2018-08-19T01:40:14.029Z,21.06
2018-08-19T01:40:40.159Z,21.07
2018-08-19T01:41:06.294Z,21.09
2018-08-19T01:41:32.439Z,21.02
2018-08-19T01:41:58.576Z,21.03
2018-08-19T01:42:24.714Z,21.15
2018-08-19T01:42:50.849Z,21.07
2018-08-19T01:43:16.980Z,21.17
2018-08-19T01:43:43.138Z,21.18
2018-08-19T01:44:09.276Z,21.09
2018-08-19T01:44:35.447Z,21.02
2018-08-19T01:45:01.574Z,21.07
2018-08-19T01:45:27.744Z,21.11
2018-08-19T01:45:53.875Z,21.09
2018-08-19T01:46:20.015Z,21.06
2018-08-19T01:46:46.154Z,21.12
2018-08-19T01:47:12.313Z,21.09
2018-08-19T01:47:38.452Z,21.11
2018-08-19T01:48:04.584Z,21.12
2018-08-19T01:48:30.738Z,21.11
2018-08-19T01:48:56.875Z,21.03
2018-08-19T01:49:23.009Z,21
2018-08-19T01:49:49.157Z,21.14
2018-08-19T01:50:15.312Z,21.05
2018-08-19T01:50:41.469Z,21.12
2018-08-19T01:51:07.596Z,21.09
2018-08-19T01:51:33.729Z,21.03
2018-08-19T01:51:59.863Z,21.03
2018-08-19T01:52:26.030Z,21.07
2018-08-19T01:52:52.176Z,21.06
2018-08-19T01:53:18.326Z,21.09
2018-08-19T01:53:44.485Z,21.02
2018-08-19T01:54:10.638Z,21.05
2018-08-19T01:54:36.823Z,21.07
2018-08-19T01:55:02.963Z,21.07
2018-08-19T01:55:29.118Z,21.07
2018-08-19T01:55:55.255Z,20.99
2018-08-19T01:56:21.390Z,20.95
2018-08-19T01:56:47.553Z,21.09
2018-08-19T01:57:13.697Z,20.92
2018-08-19T01:57:39.847Z,20.95
2018-08-19T01:58:05.984Z,20.93
2018-08-19T01:58:32.120Z,20.96
2018-08-19T01:58:58.252Z,20.95
2018-08-19T01:59:24.394Z,20.96
2018-08-19T01:59:50.537Z,20.96
2018-08-19T02:00:16.689Z,21
2018-08-19T02:00:42.820Z,20.96
2018-08-19T02:01:08.957Z,20.92
2018-08-19T02:01:35.100Z,20.99
2018-08-19T02:02:01.232Z,20.93
2018-08-19T02:02:27.364Z,20.97
2018-08-19T02:02:53.500Z,20.99
2018-08-19T02:03:19.658Z,20.97
2018-08-19T02:03:45.785Z,20.96
2018-08-19T02:04:11.925Z,20.96
2018-08-19T02:04:38.086Z,20.9
2018-08-19T02:05:04.218Z,20.96
2018-08-19T02:05:30.352Z,20.96
2018-08-19T02:05:56.509Z,20.96
2018-08-19T02:06:22.655Z,20.96
2018-08-19T02:06:48.789Z,21
2018-08-19T02:07:14.925Z,20.93
2018-08-19T02:07:41.062Z,20.99
2018-08-19T02:08:07.222Z,20.95
2018-08-19T02:08:33.349Z,20.9
2018-08-19T02:08:59.491Z,20.93
2018-08-19T02:09:25.646Z,20.95
2018-08-19T02:09:51.759Z,20.88
2018-08-19T02:10:17.895Z,20.95
2018-08-19T02:10:44.035Z,20.95
2018-08-19T02:11:10.175Z,20.88
2018-08-19T02:11:36.311Z,20.9
2018-08-19T02:12:02.450Z,20.92
2018-08-19T02:12:28.580Z,20.84
2018-08-19T02:12:54.718Z,20.82
2018-08-19T02:13:20.864Z,20.74
2018-08-19T02:13:46.999Z,20.69
2018-08-19T02:14:13.135Z,20.75
2018-08-19T02:14:39.269Z,20.77
2018-08-19T02:15:05.461Z,20.72
2018-08-19T02:15:31.597Z,20.84
2018-08-19T02:15:57.732Z,20.84
2018-08-19T02:16:23.871Z,20.85
2018-08-19T02:16:50.023Z,20.82
2018-08-19T02:17:16.163Z,20.87
2018-08-19T02:17:42.300Z,20.87
2018-08-19T02:18:08.458Z,20.88
2018-08-19T02:18:34.592Z,20.9
2018-08-19T02:19:00.758Z,20.92
2018-08-19T02:19:26.889Z,20.87
2018-08-19T02:19:53.031Z,20.87
2018-08-19T02:20:19.157Z,20.87
2018-08-19T02:20:45.361Z,20.93
2018-08-19T02:21:11.463Z,20.9
2018-08-19T02:21:37.604Z,20.87
2018-08-19T02:22:03.785Z,20.84
2018-08-19T02:22:29.920Z,20.9
2018-08-19T02:22:56.058Z,20.9
2018-08-19T02:23:22.244Z,20.87
2018-08-19T02:23:48.389Z,20.85
2018-08-19T02:24:14.563Z,20.95
2018-08-19T02:24:40.698Z,20.92
2018-08-19T02:25:06.834Z,20.87
2018-08-19T02:25:32.969Z,20.84
2018-08-19T02:25:59.126Z,20.84
2018-08-19T02:26:25.265Z,20.82
2018-08-19T02:26:51.396Z,20.8
2018-08-19T02:27:17.541Z,20.81
2018-08-19T02:27:43.677Z,20.82
2018-08-19T02:28:09.835Z,20.85
2018-08-19T02:28:35.977Z,20.82
2018-08-19T02:29:02.112Z,20.81
2018-08-19T02:29:28.244Z,20.92
2018-08-19T02:29:54.388Z,20.88
2018-08-19T02:30:20.530Z,20.87
2018-08-19T02:30:46.685Z,20.9
2018-08-19T02:31:12.849Z,20.88
2018-08-19T02:31:39.027Z,20.87
2018-08-19T02:32:05.167Z,20.87
2018-08-19T02:32:31.298Z,20.87
2018-08-19T02:32:57.444Z,20.85
2018-08-19T02:33:23.598Z,20.8
2018-08-19T02:33:49.730Z,20.82
2018-08-19T02:34:15.864Z,20.75
2018-08-19T02:34:42.005Z,20.69
2018-08-19T02:35:08.205Z,20.77
2018-08-19T02:35:34.334Z,20.81
2018-08-19T02:36:00.476Z,20.84
2018-08-19T02:36:26.613Z,20.81
2018-08-19T02:36:52.773Z,20.8
2018-08-19T02:37:18.905Z,20.8
2018-08-19T02:37:45.036Z,20.81
2018-08-19T02:38:11.198Z,20.69
2018-08-19T02:38:37.350Z,20.75
2018-08-19T02:39:03.492Z,20.77
2018-08-19T02:39:29.625Z,20.85
2018-08-19T02:39:55.760Z,20.8
2018-08-19T02:40:21.919Z,20.82
2018-08-19T02:40:48.054Z,20.95
2018-08-19T02:41:14.194Z,20.84
2018-08-19T02:41:40.326Z,20.81
2018-08-19T02:42:06.460Z,20.84
2018-08-19T02:42:32.617Z,20.82
2018-08-19T02:42:58.750Z,20.81
2018-08-19T02:43:24.886Z,20.75
2018-08-19T02:43:51.015Z,20.75
2018-08-19T02:44:17.149Z,20.78
2018-08-19T02:44:43.287Z,20.77
2018-08-19T02:45:09.446Z,20.75
2018-08-19T02:45:35.602Z,20.66
2018-08-19T02:46:01.734Z,20.69
2018-08-19T02:46:27.874Z,20.66
2018-08-19T02:46:54.033Z,20.7
2018-08-19T02:47:20.168Z,20.72
2018-08-19T02:47:46.293Z,20.67
2018-08-19T02:48:12.457Z,20.67
2018-08-19T02:48:38.595Z,20.66
2018-08-19T02:49:04.758Z,20.67
2018-08-19T02:49:30.966Z,20.65
2018-08-19T02:49:57.097Z,20.67
2018-08-19T02:50:23.253Z,20.66
2018-08-19T02:50:49.409Z,20.69
2018-08-19T02:51:15.592Z,20.66
2018-08-19T02:51:41.744Z,20.7
2018-08-19T02:52:07.905Z,20.67
2018-08-19T02:52:34.042Z,20.67
2018-08-19T02:53:00.203Z,20.66
2018-08-19T02:53:26.329Z,20.69
2018-08-19T02:53:52.464Z,20.65
2018-08-19T02:54:18.624Z,20.65
2018-08-19T02:54:44.773Z,20.58
2018-08-19T02:55:10.928Z,20.63
2018-08-19T02:55:37.086Z,20.58
2018-08-19T02:56:03.221Z,20.67
2018-08-19T02:56:29.401Z,20.65
2018-08-19T02:56:55.559Z,20.65
2018-08-19T02:57:21.720Z,20.59
2018-08-19T02:57:47.853Z,20.65
2018-08-19T02:58:13.987Z,20.65
2018-08-19T02:58:40.129Z,20.65
2018-08-19T02:59:06.268Z,20.63
2018-08-19T02:59:32.403Z,20.59
2018-08-19T02:59:58.581Z,20.69
2018-08-19T03:00:24.721Z,20.67
2018-08-19T03:00:50.888Z,20.66
2018-08-19T03:01:17.049Z,20.69
2018-08-19T03:01:43.205Z,20.69
2018-08-19T03:02:09.341Z,20.62
2018-08-19T03:02:35.546Z,20.65
2018-08-19T03:03:01.698Z,20.65
2018-08-19T03:03:27.835Z,20.59
2018-08-19T03:03:53.972Z,20.63
2018-08-19T03:04:20.104Z,20.59
2018-08-19T03:04:46.240Z,20.59
2018-08-19T03:05:12.378Z,20.58
2018-08-19T03:05:38.535Z,20.6
2018-08-19T03:06:04.673Z,20.58
2018-08-19T03:06:30.805Z,20.65
2018-08-19T03:06:56.941Z,20.6
2018-08-19T03:07:23.068Z,20.58
2018-08-19T03:07:49.207Z,20.58
2018-08-19T03:08:15.348Z,20.59
2018-08-19T03:08:41.485Z,20.63
2018-08-19T03:09:07.664Z,20.56
2018-08-19T03:09:33.805Z,20.6
2018-08-19T03:09:59.965Z,20.59
2018-08-19T03:10:26.108Z,20.63
2018-08-19T03:10:52.236Z,20.63
2018-08-19T03:11:18.397Z,20.56
2018-08-19T03:11:44.531Z,20.65
2018-08-19T03:12:10.665Z,20.67
2018-08-19T03:12:36.830Z,20.56
2018-08-19T03:13:02.970Z,20.66
2018-08-19T03:13:29.123Z,20.6
2018-08-19T03:13:55.264Z,20.62
2018-08-19T03:14:21.413Z,20.62
2018-08-19T03:14:47.548Z,20.6
2018-08-19T03:15:13.844Z,20.58
2018-08-19T03:15:39.866Z,20.6
2018-08-19T03:16:05.997Z,20.43
2018-08-19T03:16:32.140Z,20.41
2018-08-19T03:16:58.273Z,20.5
2018-08-19T03:17:24.425Z,20.47
2018-08-19T03:17:50.560Z,20.52
2018-08-19T03:18:16.716Z,20.56
2018-08-19T03:18:42.858Z,20.52
2018-08-19T03:19:08.986Z,20.6
2018-08-19T03:19:35.124Z,20.55
2018-08-19T03:20:01.256Z,20.62
2018-08-19T03:20:27.396Z,20.41
2018-08-19T03:20:53.552Z,20.44
2018-08-19T03:21:19.688Z,20.6
2018-08-19T03:21:45.817Z,20.59
2018-08-19T03:22:11.957Z,20.6
2018-08-19T03:22:38.086Z,20.67
2018-08-19T03:23:04.221Z,20.66
2018-08-19T03:23:30.356Z,20.58
2018-08-19T03:23:56.511Z,20.56
2018-08-19T03:24:22.678Z,20.43
2018-08-19T03:24:48.808Z,20.52
2018-08-19T03:25:14.947Z,20.41
2018-08-19T03:25:41.083Z,20.59
2018-08-19T03:26:07.276Z,20.62
2018-08-19T03:26:33.404Z,20.59
2018-08-19T03:26:59.543Z,20.41
2018-08-19T03:27:25.701Z,20.44
2018-08-19T03:27:51.863Z,20.47
2018-08-19T03:28:17.995Z,20.47
2018-08-19T03:28:44.159Z,20.41
2018-08-19T03:29:10.296Z,20.52
2018-08-19T03:29:36.439Z,20.6
2018-08-19T03:30:02.592Z,20.51
2018-08-19T03:30:28.727Z,20.47
2018-08-19T03:30:54.933Z,20.43
2018-08-19T03:31:21.128Z,20.41
2018-08-19T03:31:47.268Z,20.44
2018-08-19T03:32:13.430Z,20.39
2018-08-19T03:32:39.565Z,20.36
2018-08-19T03:33:05.700Z,20.4
2018-08-19T03:33:31.887Z,20.37
2018-08-19T03:33:58.015Z,20.44
2018-08-19T03:34:24.219Z,20.44
2018-08-19T03:34:50.369Z,20.36
2018-08-19T03:35:16.522Z,20.4
2018-08-19T03:35:42.660Z,20.47
2018-08-19T03:36:08.820Z,20.41
2018-08-19T03:36:34.978Z,20.4
2018-08-19T03:37:01.112Z,20.4
2018-08-19T03:37:27.245Z,20.4
2018-08-19T03:37:53.437Z,20.43
2018-08-19T03:38:19.541Z,20.39
2018-08-19T03:38:45.679Z,20.41
2018-08-19T03:39:11.804Z,20.51
2018-08-19T03:39:37.944Z,20.41
2018-08-19T03:40:04.070Z,20.4
2018-08-19T03:40:30.225Z,20.5
2018-08-19T03:40:56.363Z,20.41
2018-08-19T03:41:22.519Z,20.39
2018-08-19T03:41:48.670Z,20.44
2018-08-19T03:42:14.809Z,20.4
2018-08-19T03:42:40.965Z,20.47
2018-08-19T03:43:07.100Z,20.4
2018-08-19T03:43:33.236Z,20.4
2018-08-19T03:43:59.365Z,20.47
2018-08-19T03:44:25.518Z,20.44
2018-08-19T03:44:51.660Z,20.41
2018-08-19T03:45:17.793Z,20.43
2018-08-19T03:45:43.932Z,20.39
2018-08-19T03:46:10.094Z,20.4
2018-08-19T03:46:36.248Z,20.39
2018-08-19T03:47:02.380Z,20.29
2018-08-19T03:47:28.519Z,20.32
2018-08-19T03:47:54.681Z,20.28
2018-08-19T03:48:20.818Z,20.31
2018-08-19T03:48:46.954Z,20.31
2018-08-19T03:49:13.142Z,20.28
2018-08-19T03:49:39.280Z,20.26
2018-08-19T03:50:05.417Z,20.21
2018-08-19T03:50:31.556Z,20.1
2018-08-19T03:50:57.714Z,20.06
2018-08-19T03:51:23.891Z,20.1
2018-08-19T03:51:50.029Z,20.14
2018-08-19T03:52:16.164Z,20.14
2018-08-19T03:52:42.326Z,20.1
2018-08-19T03:53:08.464Z,20.11
2018-08-19T03:53:34.599Z,20.22
2018-08-19T03:54:00.727Z,20.09
2018-08-19T03:54:26.869Z,20.16
2018-08-19T03:54:53.058Z,20.11
2018-08-19T03:55:19.183Z,20.16
2018-08-19T03:55:45.338Z,20.13
2018-08-19T03:56:11.477Z,20.11
2018-08-19T03:56:37.612Z,20.14
2018-08-19T03:57:03.752Z,20.11
2018-08-19T03:57:29.891Z,20.14
2018-08-19T03:57:56.040Z,20.09
2018-08-19T03:58:22.212Z,20.09
2018-08-19T03:58:48.371Z,20.03
2018-08-19T03:59:14.523Z,20
2018-08-19T03:59:40.678Z,20.04
2018-08-19T04:00:06.807Z,20.04
2018-08-19T04:00:32.944Z,20.04
2018-08-19T04:00:59.112Z,19.92
2018-08-19T04:01:25.242Z,20.02
2018-08-19T04:01:51.383Z,20
2018-08-19T04:02:17.557Z,19.92
2018-08-19T04:02:43.693Z,19.89
2018-08-19T04:03:09.827Z,19.88
2018-08-19T04:03:35.973Z,19.84
2018-08-19T04:04:02.107Z,19.79
2018-08-19T04:04:28.250Z,19.82
2018-08-19T04:04:54.412Z,19.82
2018-08-19T04:05:20.546Z,19.79
2018-08-19T04:05:46.678Z,19.71
2018-08-19T04:06:12.835Z,19.69
2018-08-19T04:06:38.975Z,19.64
2018-08-19T04:07:05.125Z,19.69
2018-08-19T04:07:31.261Z,19.66
2018-08-19T04:07:57.406Z,19.71
2018-08-19T04:08:23.564Z,19.69
2018-08-19T04:08:49.696Z,19.69
2018-08-19T04:09:15.886Z,19.64
2018-08-19T04:09:42.039Z,19.67
2018-08-19T04:10:08.180Z,19.67
2018-08-19T04:10:34.322Z,19.67
2018-08-19T04:11:00.479Z,19.67
2018-08-19T04:11:26.644Z,19.62
2018-08-19T04:11:52.803Z,19.67
2018-08-19T04:12:18.970Z,19.59
2018-08-19T04:12:45.128Z,19.63
2018-08-19T04:13:11.267Z,19.62
2018-08-19T04:13:37.397Z,19.56
2018-08-19T04:14:03.535Z,19.66
2018-08-19T04:14:29.675Z,19.66
2018-08-19T04:14:55.814Z,19.63
2018-08-19T04:15:21.946Z,19.67
2018-08-19T04:15:48.104Z,19.64
2018-08-19T04:16:14.262Z,19.73
2018-08-19T04:16:40.400Z,19.66
2018-08-19T04:17:06.583Z,19.66
2018-08-19T04:17:32.705Z,19.58
2018-08-19T04:17:58.860Z,19.66
2018-08-19T04:18:25.052Z,19.66
2018-08-19T04:18:51.207Z,19.66
2018-08-19T04:19:17.335Z,19.7
2018-08-19T04:19:43.472Z,19.67
2018-08-19T04:20:09.684Z,19.66
2018-08-19T04:20:35.822Z,19.69
2018-08-19T04:21:01.986Z,19.66
2018-08-19T04:21:28.121Z,19.7
2018-08-19T04:21:54.286Z,19.7
2018-08-19T04:22:20.425Z,19.69
2018-08-19T04:22:46.588Z,19.66
2018-08-19T04:23:12.747Z,19.7
2018-08-19T04:23:38.976Z,19.66
2018-08-19T04:24:05.058Z,19.7
2018-08-19T04:24:31.191Z,19.73
2018-08-19T04:24:57.328Z,19.66
2018-08-19T04:25:23.471Z,19.69
2018-08-19T04:25:49.603Z,19.67
2018-08-19T04:26:15.746Z,19.69
2018-08-19T04:26:41.924Z,19.66
2018-08-19T04:27:08.051Z,19.67
2018-08-19T04:27:34.210Z,19.73
2018-08-19T04:28:00.342Z,19.69
2018-08-19T04:28:26.508Z,19.79
2018-08-19T04:28:52.650Z,19.79
2018-08-19T04:29:18.782Z,19.7
2018-08-19T04:29:44.951Z,19.79
2018-08-19T04:30:11.087Z,19.77
2018-08-19T04:30:37.245Z,19.79
2018-08-19T04:31:03.389Z,19.76
2018-08-19T04:31:29.527Z,19.74
2018-08-19T04:31:55.653Z,19.7
2018-08-19T04:32:21.789Z,19.77
2018-08-19T04:32:47.922Z,19.79
2018-08-19T04:33:14.084Z,19.69
2018-08-19T04:33:40.220Z,19.67
2018-08-19T04:34:06.371Z,19.67
2018-08-19T04:34:32.509Z,19.79
2018-08-19T04:34:58.647Z,19.71
2018-08-19T04:35:24.781Z,19.67
2018-08-19T04:35:50.985Z,19.71
2018-08-19T04:36:17.125Z,19.67
2018-08-19T04:36:43.268Z,19.67
2018-08-19T04:37:09.402Z,19.63
2018-08-19T04:37:35.537Z,19.69
2018-08-19T04:38:01.682Z,19.66
2018-08-19T04:38:27.820Z,19.69
2018-08-19T04:38:53.978Z,19.67
2018-08-19T04:39:20.138Z,19.79
2018-08-19T04:39:46.323Z,19.73
2018-08-19T04:40:12.480Z,19.73
2018-08-19T04:40:38.643Z,19.79
2018-08-19T04:41:04.795Z,19.71
2018-08-19T04:41:30.957Z,19.74
2018-08-19T04:41:57.092Z,19.69
2018-08-19T04:42:23.422Z,19.7
2018-08-19T04:42:49.374Z,19.7
2018-08-19T04:43:15.510Z,19.73
2018-08-19T04:43:41.673Z,19.63
2018-08-19T04:44:07.807Z,19.67
2018-08-19T04:44:33.946Z,19.69
2018-08-19T04:45:00.118Z,19.76
2018-08-19T04:45:26.256Z,19.77
2018-08-19T04:45:52.393Z,19.7
2018-08-19T04:46:18.526Z,19.81
2018-08-19T04:46:44.668Z,19.81
2018-08-19T04:47:10.802Z,19.92
2018-08-19T04:47:36.930Z,19.86
2018-08-19T04:48:03.082Z,19.89
2018-08-19T04:48:29.247Z,19.81
2018-08-19T04:48:55.410Z,19.91
2018-08-19T04:49:21.540Z,19.84
2018-08-19T04:49:47.702Z,19.96
2018-08-19T04:50:13.890Z,19.77
2018-08-19T04:50:40.031Z,19.88
2018-08-19T04:51:06.163Z,19.91
2018-08-19T04:51:32.347Z,19.91
2018-08-19T04:51:58.480Z,19.92
2018-08-19T04:52:24.617Z,19.81
2018-08-19T04:52:50.747Z,19.84
2018-08-19T04:53:16.889Z,19.92
2018-08-19T04:53:43.023Z,19.95
2018-08-19T04:54:09.179Z,19.91
2018-08-19T04:54:35.314Z,19.91
2018-08-19T04:55:01.451Z,19.88
2018-08-19T04:55:27.607Z,19.86
2018-08-19T04:55:53.750Z,19.79
2018-08-19T04:56:19.903Z,19.79
2018-08-19T04:56:46.068Z,19.91
2018-08-19T04:57:12.231Z,19.79
2018-08-19T04:57:38.390Z,19.92
2018-08-19T04:58:04.529Z,20.03
2018-08-19T04:58:30.663Z,19.94
2018-08-19T04:58:56.833Z,19.95
2018-08-19T04:59:23.006Z,19.91
2018-08-19T04:59:49.143Z,19.92
2018-08-19T05:00:15.306Z,19.92
2018-08-19T05:00:41.441Z,19.99
2018-08-19T05:01:07.598Z,20.02
2018-08-19T05:01:33.729Z,19.96
2018-08-19T05:01:59.897Z,20.04
2018-08-19T05:02:26.123Z,19.95
2018-08-19T05:02:52.207Z,19.95
2018-08-19T05:03:18.343Z,19.99
2018-08-19T05:03:44.486Z,19.95
2018-08-19T05:04:10.658Z,20.02
2018-08-19T05:04:36.794Z,20.07
2018-08-19T05:05:02.961Z,19.96
2018-08-19T05:05:29.090Z,20
2018-08-19T05:05:55.224Z,19.95
2018-08-19T05:06:21.388Z,19.96
2018-08-19T05:06:47.546Z,20.04
2018-08-19T05:07:13.681Z,19.99
2018-08-19T05:07:39.818Z,20.03
2018-08-19T05:08:06.175Z,19.95
2018-08-19T05:08:32.212Z,19.89
2018-08-19T05:08:58.275Z,19.92
2018-08-19T05:09:24.412Z,19.91
2018-08-19T05:09:50.546Z,19.96
2018-08-19T05:10:16.679Z,20
2018-08-19T05:10:42.816Z,19.94
2018-08-19T05:11:08.980Z,19.99
2018-08-19T05:11:35.132Z,19.94
2018-08-19T05:12:01.273Z,20.02
2018-08-19T05:12:27.430Z,20.03
2018-08-19T05:12:53.575Z,20.09
2018-08-19T05:13:19.733Z,20.09
2018-08-19T05:13:45.866Z,19.99
2018-08-19T05:14:12.035Z,20.06
2018-08-19T05:14:38.191Z,19.99
2018-08-19T05:15:04.329Z,19.94
2018-08-19T05:15:30.550Z,19.91
2018-08-19T05:15:56.593Z,19.96
2018-08-19T05:16:22.733Z,20
2018-08-19T05:16:48.872Z,19.91
2018-08-19T05:17:15.013Z,20.07
2018-08-19T05:17:41.141Z,20.02
2018-08-19T05:18:07.277Z,19.92
2018-08-19T05:18:33.420Z,19.99
2018-08-19T05:18:59.581Z,20.04
2018-08-19T05:19:25.710Z,20.04
2018-08-19T05:19:51.898Z,20.04
2018-08-19T05:20:18.031Z,20.02
2018-08-19T05:20:44.163Z,20.06
2018-08-19T05:21:10.293Z,20.11
2018-08-19T05:21:36.430Z,20.16
2018-08-19T05:22:02.576Z,20.06
2018-08-19T05:22:28.764Z,20.1
2018-08-19T05:22:54.930Z,20.07
2018-08-19T05:23:21.082Z,20.11
2018-08-19T05:23:47.216Z,20.09
2018-08-19T05:24:13.355Z,20.07
2018-08-19T05:24:39.493Z,20.1
2018-08-19T05:25:05.633Z,20.11
2018-08-19T05:25:31.766Z,20.1
2018-08-19T05:25:57.904Z,20.09
2018-08-19T05:26:24.067Z,20.1
2018-08-19T05:26:50.210Z,20.18
2018-08-19T05:27:16.349Z,20.19
2018-08-19T05:27:42.503Z,20.11
2018-08-19T05:28:08.664Z,20.21
2018-08-19T05:28:34.820Z,20.16
2018-08-19T05:29:00.938Z,20.24
2018-08-19T05:29:27.073Z,20.22
2018-08-19T05:29:53.225Z,20.24
2018-08-19T05:30:19.366Z,20.25
2018-08-19T05:30:45.506Z,20.21
2018-08-19T05:31:11.640Z,20.14
2018-08-19T05:31:37.781Z,20.19
2018-08-19T05:32:03.913Z,20.14
2018-08-19T05:32:30.053Z,20.03
2018-08-19T05:32:56.196Z,20.03
2018-08-19T05:33:22.341Z,19.94
2018-08-19T05:33:48.484Z,19.96
2018-08-19T05:34:14.613Z,19.99
2018-08-19T05:34:40.755Z,19.94
2018-08-19T05:35:06.889Z,20
2018-08-19T05:35:33.034Z,19.92
2018-08-19T05:35:59.169Z,19.91
2018-08-19T05:36:25.305Z,19.74
2018-08-19T05:36:51.437Z,19.82
2018-08-19T05:37:17.571Z,19.77
2018-08-19T05:37:43.733Z,19.81
2018-08-19T05:38:09.998Z,19.71